Time;durP1;ratioP1;P1;durP2;ratioP2;P2;SDS_P1;SDS_P2;PMS_P1;PMS_P2;Temp;Humidity;BMP_temperature;BMP_pressure;BME280_temperature;BME280_humidity;BME280_pressure;Samples;Min_cycle;Max_cycle;Signal;HPM_P1;HPM_P2
2023/03/06 00:00:36;;;;;;;23.58;11.20;;;;;;;;;;5004969;28;20067;-67
2023/03/06 00:03:02;;;;;;;23.90;11.55;;;;;;;;;;5004977;28;20045;-67
2023/03/06 00:05:28;;;;;;;24.08;11.02;;;;;;;;;;5000884;28;20037;-68
2023/03/06 00:07:54;;;;;;;22.92;11.85;;;;;;;;;;4994041;28;20045;-66
2023/03/06 00:10:22;;;;;;;25.65;12.00;;;;;;;;;;5006859;28;20041;-68
2023/03/06 00:12:51;;;;;;;29.67;11.60;;;;;;;;;;5007359;28;20025;-66
2023/03/06 00:15:17;;;;;;;24.23;11.75;;;;;;;;;;5004085;28;20489;-66
2023/03/06 00:17:43;;;;;;;22.15;11.82;;;;;;;;;;5004334;28;20103;-66
2023/03/06 00:20:10;;;;;;;25.38;12.50;;;;;;;;;;5004231;28;20038;-67
2023/03/06 00:22:36;;;;;;;25.83;11.80;;;;;;;;;;5006170;28;20069;-67
2023/03/06 00:25:03;;;;;;;19.27;11.18;;;;;;;;;;5007777;28;20044;-67
2023/03/06 00:27:30;;;;;;;25.30;13.23;;;;;;;;;;5003992;28;20066;-67
2023/03/06 00:29:57;;;;;;;24.92;12.32;;;;;;;;;;5006309;28;20034;-67
2023/03/06 00:32:23;;;;;;;26.45;12.88;;;;;;;;;;5007157;28;20410;-69
2023/03/06 00:34:51;;;;;;;29.63;13.60;;;;;;;;;;5004303;28;20084;-68
2023/03/06 00:37:17;;;;;;;30.45;13.65;;;;;;;;;;4990084;28;20037;-68
2023/03/06 00:39:43;;;;;;;23.88;11.70;;;;;;;;;;5005797;28;20477;-68
2023/03/06 00:42:09;;;;;;;29.33;12.98;;;;;;;;;;5003399;28;20568;-67
2023/03/06 00:44:34;;;;;;;34.90;14.10;;;;;;;;;;5003609;28;20433;-67
2023/03/06 00:47:01;;;;;;;32.25;13.77;;;;;;;;;;5002884;28;20038;-67
2023/03/06 00:49:26;;;;;;;30.33;14.73;;;;;;;;;;5005656;28;20029;-67
2023/03/06 00:51:52;;;;;;;33.45;14.93;;;;;;;;;;5005745;28;20026;-66
2023/03/06 00:54:17;;;;;;;32.85;15.77;;;;;;;;;;5003862;28;20096;-66
2023/03/06 00:56:43;;;;;;;29.13;15.55;;;;;;;;;;5002630;28;20413;-67
2023/03/06 00:59:10;;;;;;;32.38;16.33;;;;;;;;;;5006103;28;20032;-66
2023/03/06 01:01:35;;;;;;;33.15;15.57;;;;;;;;;;5009101;28;20048;-67
2023/03/06 01:04:01;;;;;;;30.58;15.80;;;;;;;;;;5007548;28;20041;-68
2023/03/06 01:06:27;;;;;;;31.17;16.02;;;;;;;;;;5006428;28;20045;-68
2023/03/06 01:08:52;;;;;;;33.45;13.25;;;;;;;;;;5005563;28;20042;-67
2023/03/06 01:11:18;;;;;;;35.35;14.73;;;;;;;;;;4988932;28;20482;-66
2023/03/06 01:13:44;;;;;;;30.00;14.38;;;;;;;;;;4987685;28;20413;-68
2023/03/06 01:16:14;;;;;;;31.73;15.68;;;;;;;;;;5006790;28;20033;-67
2023/03/06 01:18:41;;;;;;;32.72;15.00;;;;;;;;;;5002052;28;20092;-66
2023/03/06 01:21:07;;;;;;;29.83;14.20;;;;;;;;;;4990530;28;20040;-68
2023/03/06 01:23:33;;;;;;;30.63;14.48;;;;;;;;;;4975982;28;20052;-66
2023/03/06 01:25:59;;;;;;;30.33;14.73;;;;;;;;;;5004948;28;20395;-68
2023/03/06 01:28:25;;;;;;;24.05;12.27;;;;;;;;;;5007873;28;20038;-66
2023/03/06 01:30:51;;;;;;;33.45;14.85;;;;;;;;;;5009033;28;20508;-68
2023/03/06 01:33:17;;;;;;;29.58;14.57;;;;;;;;;;5008138;28;20108;-67
2023/03/06 01:35:43;;;;;;;35.03;14.93;;;;;;;;;;5006516;28;20061;-68
2023/03/06 01:38:08;;;;;;;29.70;15.13;;;;;;;;;;5020257;28;20044;-68
2023/03/06 01:40:36;;;;;;;33.08;16.27;;;;;;;;;;4990242;28;20121;-69
2023/03/06 01:43:24;;;;;;;14.60;9.35;;;;;;;;;;5002221;28;20127;-67
2023/03/06 01:45:50;;;;;;;;;;;;;;;;;;5011077;28;20049;-68
2023/03/06 01:48:22;;;;;;;30.35;12.93;;;;;;;;;;4982510;28;19913;-67
2023/03/06 01:50:51;;;;;;;31.60;14.18;;;;;;;;;;4973606;28;20126;-67
2023/03/06 01:53:18;;;;;;;28.80;13.73;;;;;;;;;;5005450;28;20099;-68
2023/03/06 01:55:43;;;;;;;28.73;14.70;;;;;;;;;;5003842;28;20057;-66
2023/03/06 01:58:14;;;;;;;28.80;13.85;;;;;;;;;;5002549;28;20085;-68
2023/03/06 02:00:41;;;;;;;24.13;12.98;;;;;;;;;;4988578;28;20034;-68
2023/03/06 02:03:20;;;;;;;25.20;13.55;;;;;;;;;;4987387;28;20048;-67
2023/03/06 02:05:46;;;;;;;27.25;14.18;;;;;;;;;;5006135;28;20404;-67
2023/03/06 02:08:16;;;;;;;28.63;14.27;;;;;;;;;;4989281;28;20034;-67
2023/03/06 02:11:01;;;;;;;30.80;14.07;;;;;;;;;;4988097;28;20030;-67
2023/03/06 02:13:28;;;;;;;26.05;13.35;;;;;;;;;;5021799;28;20033;-68
2023/03/06 02:15:55;;;;;;;24.38;13.40;;;;;;;;;;5022027;28;20029;-66
2023/03/06 02:18:22;;;;;;;29.15;13.70;;;;;;;;;;4992264;28;20037;-69
2023/03/06 02:20:52;;;;;;;29.50;12.57;;;;;;;;;;4973684;28;20128;-67
2023/03/06 02:23:28;;;;;;;;;;;;;;;;;;5006551;28;20085;-68
2023/03/06 02:25:55;;;;;;;30.23;13.68;;;;;;;;;;4985848;28;20451;-68
2023/03/06 02:28:22;;;;;;;29.95;13.40;;;;;;;;;;4976870;28;20053;-70
2023/03/06 02:30:50;;;;;;;30.98;14.35;;;;;;;;;;5003349;28;20038;-67
2023/03/06 02:33:18;;;;;;;32.95;14.93;;;;;;;;;;5002878;28;20076;-66
2023/03/06 02:36:05;;;;;;;33.13;14.60;;;;;;;;;;5007203;28;20091;-68
2023/03/06 02:38:35;;;;;;;31.98;14.52;;;;;;;;;;5012215;28;20780;-71
2023/03/06 02:41:03;;;;;;;33.03;15.02;;;;;;;;;;5006068;28;20036;-69
2023/03/06 02:43:33;;;;;;;32.17;14.67;;;;;;;;;;5009097;28;20096;-68
2023/03/06 02:45:59;;;;;;;27.05;14.90;;;;;;;;;;5006260;28;20042;-70
2023/03/06 02:48:25;;;;;;;26.45;13.70;;;;;;;;;;5003784;28;20062;-69
2023/03/06 02:50:51;;;;;;;27.83;13.40;;;;;;;;;;5004011;28;20060;-69
2023/03/06 02:53:19;;;;;;;29.65;13.95;;;;;;;;;;5007744;28;20033;-68
2023/03/06 02:55:45;;;;;;;29.38;14.65;;;;;;;;;;4999574;28;20029;-69
2023/03/06 02:58:13;;;;;;;31.58;14.43;;;;;;;;;;5007084;28;20098;-71
2023/03/06 03:00:39;;;;;;;29.75;13.90;;;;;;;;;;5006585;28;20037;-68
2023/03/06 03:03:07;;;;;;;28.42;14.98;;;;;;;;;;5001111;28;20126;-68
2023/03/06 03:05:32;;;;;;;23.60;12.63;;;;;;;;;;5004922;28;20537;-69
2023/03/06 03:08:05;;;;;;;24.70;11.88;;;;;;;;;;5008007;28;20038;-67
2023/03/06 03:10:32;;;;;;;26.25;12.82;;;;;;;;;;5005451;28;20038;-69
2023/03/06 03:12:58;;;;;;;23.77;12.50;;;;;;;;;;5008296;28;20141;-70
2023/03/06 03:15:24;;;;;;;29.05;13.13;;;;;;;;;;4999694;28;20061;-69
2023/03/06 03:17:50;;;;;;;28.90;13.15;;;;;;;;;;5008443;28;20034;-69
2023/03/06 03:20:18;;;;;;;27.30;13.45;;;;;;;;;;5007022;28;20030;-70
2023/03/06 03:22:53;;;;;;;26.02;12.90;;;;;;;;;;5004515;28;20113;-68
2023/03/06 03:25:23;;;;;;;30.08;14.18;;;;;;;;;;5001674;28;20049;-69
2023/03/06 03:27:50;;;;;;;28.75;13.57;;;;;;;;;;5005463;28;20068;-69
2023/03/06 03:30:16;;;;;;;28.08;14.13;;;;;;;;;;5007212;28;20704;-69
2023/03/06 03:32:42;;;;;;;29.10;15.40;;;;;;;;;;5006743;28;20129;-68
2023/03/06 03:35:10;;;;;;;31.13;14.88;;;;;;;;;;5002078;28;20112;-67
2023/03/06 03:37:36;;;;;;;30.80;14.38;;;;;;;;;;5001207;28;20667;-67
2023/03/06 03:40:03;;;;;;;28.98;14.68;;;;;;;;;;5005840;28;20109;-69
2023/03/06 03:42:30;;;;;;;30.42;15.07;;;;;;;;;;5008406;28;20149;-69
2023/03/06 03:44:55;;;;;;;27.95;14.35;;;;;;;;;;5004952;28;20112;-69
2023/03/06 03:47:21;;;;;;;27.48;14.13;;;;;;;;;;5005017;28;20038;-70
2023/03/06 03:49:47;;;;;;;29.60;14.35;;;;;;;;;;5005276;28;20064;-69
2023/03/06 03:52:13;;;;;;;36.30;14.15;;;;;;;;;;4998536;28;20034;-68
2023/03/06 03:54:40;;;;;;;30.88;14.80;;;;;;;;;;5007259;28;20041;-68
2023/03/06 03:57:05;;;;;;;31.33;14.88;;;;;;;;;;5004578;28;20547;-71
2023/03/06 03:59:35;;;;;;;32.30;13.15;;;;;;;;;;5002781;28;20161;-68
2023/03/06 04:02:13;;;;;;;30.05;14.32;;;;;;;;;;5004870;28;20038;-67
2023/03/06 04:04:56;;;;;;;28.13;13.70;;;;;;;;;;5007177;28;20068;-68
2023/03/06 04:07:22;;;;;;;26.27;14.68;;;;;;;;;;5005467;28;20119;-68
2023/03/06 04:09:48;;;;;;;29.38;14.25;;;;;;;;;;5005390;28;20160;-67
2023/03/06 04:12:14;;;;;;;24.92;13.23;;;;;;;;;;5004136;28;20500;-69
2023/03/06 04:14:41;;;;;;;31.45;14.23;;;;;;;;;;5003586;28;20437;-70
2023/03/06 04:17:07;;;;;;;26.98;13.20;;;;;;;;;;5004675;28;20124;-69
2023/03/06 04:19:32;;;;;;;30.15;13.82;;;;;;;;;;5003765;28;20125;-68
2023/03/06 04:22:00;;;;;;;25.73;13.15;;;;;;;;;;5002040;28;20038;-68
2023/03/06 04:24:27;;;;;;;30.20;13.80;;;;;;;;;;5006321;28;20401;-71
2023/03/06 04:26:53;;;;;;;27.02;13.50;;;;;;;;;;5002221;28;20548;-67
2023/03/06 04:29:19;;;;;;;26.25;12.75;;;;;;;;;;5001091;28;20038;-67
2023/03/06 04:31:44;;;;;;;25.70;12.98;;;;;;;;;;5003003;28;20046;-71
2023/03/06 04:34:10;;;;;;;25.63;12.82;;;;;;;;;;5006099;28;20065;-68
2023/03/06 04:36:36;;;;;;;22.17;12.93;;;;;;;;;;5003405;28;20036;-68
2023/03/06 04:39:08;;;;;;;29.98;13.27;;;;;;;;;;4998253;28;20026;-69
2023/03/06 04:41:34;;;;;;;28.35;12.57;;;;;;;;;;5008672;28;20516;-68
2023/03/06 04:43:59;;;;;;;24.92;12.55;;;;;;;;;;5008143;28;20030;-69
2023/03/06 04:46:25;;;;;;;23.90;11.95;;;;;;;;;;5005265;28;20413;-68
2023/03/06 04:48:50;;;;;;;23.27;11.85;;;;;;;;;;5007165;28;20052;-68
2023/03/06 04:51:16;;;;;;;29.77;13.73;;;;;;;;;;5007682;28;20112;-68
2023/03/06 04:53:41;;;;;;;28.33;13.80;;;;;;;;;;5006553;28;20368;-68
2023/03/06 04:56:07;;;;;;;32.45;14.18;;;;;;;;;;5001099;28;20562;-68
2023/03/06 04:58:33;;;;;;;33.83;14.88;;;;;;;;;;5005773;28;20034;-69
2023/03/06 05:00:58;;;;;;;29.75;14.25;;;;;;;;;;5007782;28;20080;-68
2023/03/06 05:03:24;;;;;;;31.42;14.75;;;;;;;;;;5007727;28;20041;-69
2023/03/06 05:05:49;;;;;;;27.90;14.38;;;;;;;;;;5001994;28;20036;-68
2023/03/06 05:08:16;;;;;;;26.63;15.00;;;;;;;;;;5001353;28;20464;-68
2023/03/06 05:10:43;;;;;;;31.83;14.43;;;;;;;;;;5006177;28;20056;-68
2023/03/06 05:13:08;;;;;;;28.67;13.10;;;;;;;;;;5006230;28;20395;-67
2023/03/06 05:15:34;;;;;;;27.95;13.43;;;;;;;;;;5004682;28;20025;-69
2023/03/06 05:17:59;;;;;;;30.60;14.57;;;;;;;;;;5006346;28;20030;-67
2023/03/06 05:20:26;;;;;;;28.20;13.85;;;;;;;;;;5007454;28;20037;-67
2023/03/06 05:22:51;;;;;;;25.52;12.18;;;;;;;;;;5006881;28;20486;-69
2023/03/06 05:25:17;;;;;;;21.13;11.65;;;;;;;;;;5001534;28;20086;-68
2023/03/06 05:27:43;;;;;;;20.98;12.35;;;;;;;;;;5007121;28;20731;-69
2023/03/06 05:30:11;;;;;;;25.20;11.88;;;;;;;;;;5006025;28;20042;-68
2023/03/06 05:32:37;;;;;;;24.83;13.27;;;;;;;;;;5001506;28;21323;-68
2023/03/06 05:35:03;;;;;;;22.60;11.07;;;;;;;;;;5006667;28;20108;-69
2023/03/06 05:37:29;;;;;;;20.42;12.15;;;;;;;;;;5003514;28;20033;-68
2023/03/06 05:39:54;;;;;;;29.92;14.35;;;;;;;;;;5006538;28;20088;-68
2023/03/06 05:42:20;;;;;;;26.50;13.52;;;;;;;;;;4999285;28;20076;-68
2023/03/06 05:44:46;;;;;;;25.13;13.77;;;;;;;;;;5005213;28;20052;-68
2023/03/06 05:47:12;;;;;;;34.63;14.77;;;;;;;;;;5011768;28;20510;-69
2023/03/06 05:49:38;;;;;;;28.70;14.35;;;;;;;;;;5005077;28;20034;-67
2023/03/06 05:52:04;;;;;;;30.13;14.63;;;;;;;;;;5001865;28;20080;-68
2023/03/06 05:54:32;;;;;;;31.60;15.10;;;;;;;;;;5007331;28;20034;-68
2023/03/06 05:56:57;;;;;;;29.95;14.82;;;;;;;;;;5004202;28;20045;-69
2023/03/06 05:59:27;;;;;;;28.65;14.27;;;;;;;;;;5010879;28;20385;-68
2023/03/06 06:01:56;;;;;;;27.02;13.48;;;;;;;;;;5010833;28;20050;-67
2023/03/06 06:04:23;;;;;;;28.20;13.63;;;;;;;;;;5010187;28;20062;-68
2023/03/06 06:06:57;;;;;;;26.83;12.32;;;;;;;;;;5006200;28;20030;-67
2023/03/06 06:09:24;;;;;;;26.85;12.15;;;;;;;;;;5003075;28;20044;-68
2023/03/06 06:11:51;;;;;;;25.02;11.68;;;;;;;;;;5011069;28;20026;-68
2023/03/06 06:14:17;;;;;;;20.42;11.65;;;;;;;;;;5006270;28;20508;-66
2023/03/06 06:16:43;;;;;;;18.95;10.98;;;;;;;;;;5004742;28;20030;-67
2023/03/06 06:19:09;;;;;;;20.25;9.75;;;;;;;;;;5005414;28;20143;-67
2023/03/06 06:21:34;;;;;;;21.05;11.77;;;;;;;;;;5009460;28;20521;-68
2023/03/06 06:24:00;;;;;;;18.85;11.40;;;;;;;;;;5005007;28;20092;-68
2023/03/06 06:26:25;;;;;;;19.15;10.52;;;;;;;;;;5008901;28;20049;-66
2023/03/06 06:28:51;;;;;;;23.85;10.93;;;;;;;;;;5009861;28;20285;-70
2023/03/06 06:31:17;;;;;;;20.25;10.00;;;;;;;;;;5009107;28;20136;-68
2023/03/06 06:33:42;;;;;;;20.42;11.48;;;;;;;;;;5006220;28;20041;-69
2023/03/06 06:36:16;;;;;;;19.70;10.00;;;;;;;;;;5006276;28;20113;-67
2023/03/06 06:38:42;;;;;;;23.00;11.05;;;;;;;;;;5010136;28;20041;-70
2023/03/06 06:41:08;;;;;;;23.65;10.73;;;;;;;;;;5016966;28;20038;-69
2023/03/06 06:43:33;;;;;;;20.38;10.82;;;;;;;;;;5008516;28;20052;-68
2023/03/06 06:45:59;;;;;;;23.52;11.48;;;;;;;;;;5012242;28;20034;-65
2023/03/06 06:48:24;;;;;;;18.85;9.45;;;;;;;;;;5011931;28;20040;-70
2023/03/06 06:50:57;;;;;;;18.23;9.48;;;;;;;;;;5005379;28;20038;-69
2023/03/06 06:53:23;;;;;;;21.83;10.45;;;;;;;;;;5010231;28;20386;-67
2023/03/06 06:55:49;;;;;;;18.65;9.95;;;;;;;;;;5010488;28;20374;-69
2023/03/06 06:58:17;;;;;;;18.23;10.27;;;;;;;;;;5009061;28;20037;-69
2023/03/06 07:00:42;;;;;;;26.30;11.88;;;;;;;;;;5008149;28;20589;-67
2023/03/06 07:03:11;;;;;;;18.45;10.60;;;;;;;;;;5009197;28;20037;-68
2023/03/06 07:05:37;;;;;;;21.90;12.13;;;;;;;;;;5010406;28;20042;-68
2023/03/06 07:08:03;;;;;;;27.80;14.85;;;;;;;;;;5011247;28;20044;-67
2023/03/06 07:10:28;;;;;;;25.92;15.23;;;;;;;;;;5002027;28;20066;-68
2023/03/06 07:12:55;;;;;;;27.38;13.60;;;;;;;;;;5013010;28;20065;-68
2023/03/06 07:15:21;;;;;;;28.83;14.10;;;;;;;;;;5011558;28;20041;-68
2023/03/06 07:17:47;;;;;;;28.35;14.15;;;;;;;;;;5008879;28;20073;-67
2023/03/06 07:20:14;;;;;;;24.33;12.32;;;;;;;;;;5006019;28;20030;-69
2023/03/06 07:22:41;;;;;;;28.10;16.40;;;;;;;;;;5010700;28;20083;-68
2023/03/06 07:25:07;;;;;;;29.63;13.40;;;;;;;;;;5010968;28;20389;-67
2023/03/06 07:27:32;;;;;;;23.42;12.75;;;;;;;;;;5008241;28;20037;-68
2023/03/06 07:29:58;;;;;;;21.35;12.13;;;;;;;;;;5007215;28;20038;-68
2023/03/06 07:32:24;;;;;;;23.65;12.57;;;;;;;;;;5009123;28;20045;-67
2023/03/06 07:34:49;;;;;;;23.13;12.43;;;;;;;;;;5008648;28;20164;-67
2023/03/06 07:37:16;;;;;;;27.00;12.25;;;;;;;;;;5009283;28;20030;-68
2023/03/06 07:39:41;;;;;;;24.17;11.07;;;;;;;;;;5010363;28;20025;-67
2023/03/06 07:42:10;;;;;;;17.45;10.20;;;;;;;;;;5010606;28;20128;-67
2023/03/06 07:44:44;;;;;;;19.95;11.65;;;;;;;;;;5003394;28;20046;-68
2023/03/06 07:47:12;;;;;;;22.38;11.38;;;;;;;;;;5020289;28;20018;-67
2023/03/06 07:49:38;;;;;;;15.48;9.63;;;;;;;;;;5008939;28;20559;-67
2023/03/06 07:52:04;;;;;;;17.05;10.57;;;;;;;;;;5009665;28;20069;-68
2023/03/06 07:54:31;;;;;;;18.52;11.57;;;;;;;;;;5004448;28;20034;-68
2023/03/06 07:56:57;;;;;;;19.02;10.35;;;;;;;;;;5009682;28;20130;-68
2023/03/06 07:59:23;;;;;;;18.10;10.25;;;;;;;;;;5009813;28;20056;-68
2023/03/06 08:01:48;;;;;;;21.58;10.75;;;;;;;;;;5005629;28;20030;-67
2023/03/06 08:04:14;;;;;;;19.27;11.30;;;;;;;;;;4990467;28;20048;-69
2023/03/06 08:06:39;;;;;;;13.85;8.38;;;;;;;;;;5009105;28;20033;-68
2023/03/06 08:09:05;;;;;;;18.08;10.00;;;;;;;;;;5009648;28;20040;-67
2023/03/06 08:11:32;;;;;;;19.52;10.35;;;;;;;;;;5008097;28;20049;-68
2023/03/06 08:13:58;;;;;;;18.23;10.02;;;;;;;;;;5003296;28;20350;-69
2023/03/06 08:16:26;;;;;;;22.50;12.30;;;;;;;;;;5009608;28;20029;-68
2023/03/06 08:18:52;;;;;;;21.40;10.82;;;;;;;;;;5000386;28;20437;-69
2023/03/06 08:21:22;;;;;;;23.20;10.60;;;;;;;;;;5005109;28;20365;-71
2023/03/06 08:23:48;;;;;;;24.02;11.52;;;;;;;;;;5009103;28;20037;-69
2023/03/06 08:26:25;;;;;;;16.33;9.70;;;;;;;;;;5010128;28;20060;-68
2023/03/06 08:28:52;;;;;;;18.35;10.00;;;;;;;;;;5005157;28;20032;-66
2023/03/06 08:31:31;;;;;;;19.27;10.55;;;;;;;;;;5006188;28;20034;-69
2023/03/06 08:33:59;;;;;;;22.55;10.88;;;;;;;;;;5009542;28;20445;-67
2023/03/06 08:36:26;;;;;;;17.13;10.30;;;;;;;;;;5008471;28;20129;-66
2023/03/06 08:38:52;;;;;;;16.10;8.82;;;;;;;;;;5008490;28;20042;-68
2023/03/06 08:41:18;;;;;;;17.85;10.10;;;;;;;;;;5009801;28;20046;-67
2023/03/06 08:43:44;;;;;;;16.65;9.55;;;;;;;;;;5009367;28;20042;-67
2023/03/06 08:46:10;;;;;;;16.23;9.15;;;;;;;;;;5009112;28;20045;-68
2023/03/06 08:48:36;;;;;;;15.63;9.15;;;;;;;;;;5024172;28;20083;-68
2023/03/06 08:51:02;;;;;;;16.33;10.23;;;;;;;;;;5007096;28;20041;-68
2023/03/06 08:53:27;;;;;;;15.55;9.93;;;;;;;;;;5008837;28;20061;-70
2023/03/06 08:55:53;;;;;;;12.63;8.95;;;;;;;;;;5009315;28;20037;-69
2023/03/06 08:58:18;;;;;;;15.43;10.05;;;;;;;;;;5004455;28;20482;-67
2023/03/06 09:00:44;;;;;;;14.23;9.38;;;;;;;;;;5008454;28;20399;-68
2023/03/06 09:03:10;;;;;;;13.45;9.18;;;;;;;;;;5008318;28;20032;-68
2023/03/06 09:05:36;;;;;;;14.15;8.93;;;;;;;;;;5008706;28;20045;-70
2023/03/06 09:08:01;;;;;;;14.90;9.73;;;;;;;;;;5005951;28;20051;-69
2023/03/06 09:10:27;;;;;;;17.10;10.63;;;;;;;;;;5008233;28;20069;-68
2023/03/06 09:12:53;;;;;;;14.63;9.38;;;;;;;;;;5006251;28;20034;-67
2023/03/06 09:15:21;;;;;;;10.60;8.05;;;;;;;;;;5010348;28;20444;-68
2023/03/06 09:17:46;;;;;;;15.65;6.35;;;;;;;;;;5008894;28;20393;-70
2023/03/06 09:20:13;;;;;;;11.80;8.27;;;;;;;;;;5007739;28;20037;-69
2023/03/06 09:22:41;;;;;;;10.85;7.93;;;;;;;;;;5008772;28;20087;-68
2023/03/06 09:25:08;;;;;;;10.45;7.90;;;;;;;;;;5003801;28;20057;-68
2023/03/06 09:27:34;;;;;;;10.63;8.50;;;;;;;;;;5008511;28;20033;-68
2023/03/06 09:30:00;;;;;;;13.85;9.52;;;;;;;;;;5008622;28;20397;-67
2023/03/06 09:32:25;;;;;;;12.30;8.07;;;;;;;;;;5005598;28;20057;-68
2023/03/06 09:34:51;;;;;;;9.75;7.13;;;;;;;;;;5007875;28;20034;-68
2023/03/06 09:37:17;;;;;;;9.32;7.78;;;;;;;;;;5008726;28;20068;-70
2023/03/06 09:39:42;;;;;;;10.82;7.90;;;;;;;;;;5009141;28;20029;-67
2023/03/06 09:42:14;;;;;;;12.75;9.02;;;;;;;;;;5008815;28;20445;-68
2023/03/06 09:44:43;;;;;;;8.75;6.93;;;;;;;;;;5007732;28;20073;-67
2023/03/06 09:47:43;;;;;;;12.87;7.57;;;;;;;;;;5010097;28;20265;-71
2023/03/06 09:50:37;;;;;;;11.27;7.63;;;;;;;;;;5009580;28;20303;-68
2023/03/06 09:53:35;;;;;;;9.10;6.88;;;;;;;;;;5006956;28;20029;-68
2023/03/06 09:56:32;;;;;;;8.80;6.93;;;;;;;;;;5020126;28;20034;-68
2023/03/06 09:59:24;;;;;;;8.82;7.05;;;;;;;;;;5018446;28;20049;-70
2023/03/06 10:02:17;;;;;;;12.57;8.27;;;;;;;;;;5021166;28;20052;-67
2023/03/06 10:04:50;;;;;;;10.52;7.35;;;;;;;;;;5023298;28;20045;-69
2023/03/06 10:07:45;;;;;;;14.10;7.03;;;;;;;;;;5021721;28;20052;-70
2023/03/06 10:10:18;;;;;;;11.70;7.22;;;;;;;;;;5009934;28;20061;-67
2023/03/06 10:12:55;;;;;;;8.32;6.13;;;;;;;;;;5024336;28;20525;-68
2023/03/06 10:15:25;;;;;;;7.28;6.55;;;;;;;;;;5025608;28;20095;-70
2023/03/06 10:17:51;;;;;;;12.68;8.30;;;;;;;;;;5025468;28;20037;-68
2023/03/06 10:20:24;;;;;;;10.75;7.18;;;;;;;;;;5030242;28;20523;-68
2023/03/06 10:23:11;;;;;;;11.38;7.72;;;;;;;;;;5024987;28;20119;-68
2023/03/06 10:25:47;;;;;;;11.20;8.02;;;;;;;;;;5022481;28;20551;-69
2023/03/06 10:28:18;;;;;;;10.32;6.85;;;;;;;;;;5018496;28;20045;-70
2023/03/06 10:31:01;;;;;;;8.73;6.95;;;;;;;;;;5001231;28;20041;-68
2023/03/06 10:33:41;;;;;;;11.55;8.02;;;;;;;;;;5007312;28;20224;-68
2023/03/06 10:36:11;;;;;;;9.77;7.47;;;;;;;;;;5006464;28;20041;-67
2023/03/06 10:38:37;;;;;;;9.30;7.00;;;;;;;;;;5001053;28;20113;-70
2023/03/06 10:41:12;;;;;;;6.68;5.97;;;;;;;;;;5007837;28;20033;-70
2023/03/06 10:43:42;;;;;;;12.00;7.38;;;;;;;;;;5007758;28;20069;-68
2023/03/06 10:46:13;;;;;;;10.35;7.55;;;;;;;;;;5011451;28;20034;-68
2023/03/06 10:48:40;;;;;;;9.25;6.80;;;;;;;;;;5010271;28;20033;-67
2023/03/06 10:51:23;;;;;;;9.88;6.82;;;;;;;;;;5011242;28;20481;-68
2023/03/06 10:53:55;;;;;;;9.10;7.15;;;;;;;;;;5012831;28;20045;-68
2023/03/06 10:56:39;;;;;;;10.43;7.63;;;;;;;;;;5010283;28;20172;-67
2023/03/06 10:59:10;;;;;;;9.93;7.80;;;;;;;;;;4992446;28;20066;-68
2023/03/06 11:01:36;;;;;;;7.53;5.88;;;;;;;;;;4993840;28;20342;-70
2023/03/06 11:04:29;;;;;;;10.88;8.15;;;;;;;;;;5006555;28;20387;-67
2023/03/06 11:07:05;;;;;;;8.82;6.55;;;;;;;;;;5010995;28;20077;-68
2023/03/06 11:09:34;;;;;;;10.25;6.95;;;;;;;;;;5010128;28;20172;-67
2023/03/06 11:12:31;;;;;;;9.35;6.90;;;;;;;;;;5007248;28;20668;-67
2023/03/06 11:15:06;;;;;;;9.55;6.45;;;;;;;;;;5004682;28;20064;-71
2023/03/06 11:17:34;;;;;;;9.80;7.40;;;;;;;;;;5012043;28;20025;-68
2023/03/06 11:20:46;;;;;;;9.73;7.18;;;;;;;;;;5010221;28;20036;-68
2023/03/06 11:23:34;;;;;;;9.35;6.65;;;;;;;;;;5006442;28;20049;-68
2023/03/06 11:26:12;;;;;;;8.90;7.25;;;;;;;;;;5008161;28;20033;-65
2023/03/06 11:28:48;;;;;;;10.90;7.25;;;;;;;;;;5010219;28;20096;-68
2023/03/06 11:31:21;;;;;;;9.73;7.38;;;;;;;;;;5013677;28;20092;-68
2023/03/06 11:34:17;;;;;;;11.10;7.95;;;;;;;;;;5008883;28;20048;-70
2023/03/06 11:37:09;;;;;;;10.10;7.80;;;;;;;;;;5010025;28;20056;-71
2023/03/06 11:39:38;;;;;;;10.05;7.10;;;;;;;;;;5007743;28;20050;-71
2023/03/06 11:42:18;;;;;;;8.18;6.28;;;;;;;;;;5010977;28;20501;-69
2023/03/06 11:45:20;;;;;;;11.73;7.53;;;;;;;;;;5010799;28;20034;-71
2023/03/06 11:48:12;;;;;;;10.75;6.97;;;;;;;;;;5011226;28;20041;-68
2023/03/06 11:50:42;;;;;;;9.73;7.03;;;;;;;;;;5010623;28;20046;-69
2023/03/06 11:53:17;;;;;;;10.82;7.38;;;;;;;;;;5009618;28;20026;-67
2023/03/06 11:56:21;;;;;;;8.38;6.60;;;;;;;;;;5009844;28;20060;-66
2023/03/06 11:59:23;;;;;;;9.70;7.68;;;;;;;;;;5010612;28;20072;-66
2023/03/06 12:01:54;;;;;;;10.27;6.93;;;;;;;;;;5007042;28;20481;-69
2023/03/06 12:04:52;;;;;;;11.27;6.53;;;;;;;;;;5009738;28;20164;-68
2023/03/06 12:07:23;;;;;;;10.65;7.60;;;;;;;;;;5010406;28;20025;-68
2023/03/06 12:10:07;;;;;;;10.60;7.93;;;;;;;;;;5008730;28;20040;-69
2023/03/06 12:13:02;;;;;;;7.75;6.70;;;;;;;;;;5003746;28;20026;-69
2023/03/06 12:15:41;;;;;;;10.73;7.80;;;;;;;;;;5007591;28;20026;-66
2023/03/06 12:18:31;;;;;;;10.23;6.97;;;;;;;;;;5008770;28;20564;-67
2023/03/06 12:21:04;;;;;;;11.45;8.18;;;;;;;;;;5004369;28;20371;-66
2023/03/06 12:24:10;;;;;;;10.45;6.88;;;;;;;;;;5010451;28;20084;-66
2023/03/06 12:26:53;;;;;;;15.60;7.45;;;;;;;;;;5012325;28;20555;-66
2023/03/06 12:29:37;;;;;;;10.82;7.40;;;;;;;;;;5007974;28;20042;-71
2023/03/06 12:32:07;;;;;;;9.30;7.07;;;;;;;;;;5010861;28;20330;-67
2023/03/06 12:34:44;;;;;;;9.13;7.15;;;;;;;;;;5003284;28;20141;-66
2023/03/06 12:37:16;;;;;;;10.02;8.05;;;;;;;;;;5005799;28;20118;-68
2023/03/06 12:39:52;;;;;;;9.25;7.65;;;;;;;;;;5007367;28;20495;-67
2023/03/06 12:42:49;;;;;;;8.65;7.03;;;;;;;;;;5007523;28;20489;-69
2023/03/06 12:45:14;;;;;;;9.82;6.90;;;;;;;;;;5007866;28;20054;-66
2023/03/06 12:47:43;;;;;;;8.18;6.78;;;;;;;;;;5009268;28;20061;-67
2023/03/06 12:50:21;;;;;;;9.40;7.47;;;;;;;;;;5008393;28;20540;-66
2023/03/06 12:52:47;;;;;;;8.63;6.32;;;;;;;;;;5008464;28;20025;-69
2023/03/06 12:55:17;;;;;;;8.32;6.80;;;;;;;;;;5002880;28;20398;-69
2023/03/06 12:57:43;;;;;;;10.70;7.78;;;;;;;;;;5008783;28;20072;-68
2023/03/06 13:00:32;;;;;;;9.93;7.90;;;;;;;;;;5008920;28;20033;-68
2023/03/06 13:03:23;;;;;;;12.15;6.97;;;;;;;;;;5009116;28;20038;-70
2023/03/06 13:06:13;;;;;;;10.10;7.05;;;;;;;;;;5006919;28;20548;-68
2023/03/06 13:08:41;;;;;;;9.68;7.45;;;;;;;;;;5006622;28;20033;-69
2023/03/06 13:11:20;;;;;;;7.97;6.20;;;;;;;;;;5008828;28;20038;-67
2023/03/06 13:13:47;;;;;;;9.88;6.82;;;;;;;;;;5002752;28;20033;-69
2023/03/06 13:16:21;;;;;;;9.60;7.10;;;;;;;;;;5009850;28;20041;-69
2023/03/06 13:18:55;;;;;;;9.98;6.68;;;;;;;;;;5006972;28;20133;-71
2023/03/06 13:21:40;;;;;;;10.57;7.25;;;;;;;;;;5006732;28;20042;-69
2023/03/06 13:24:14;;;;;;;8.75;7.45;;;;;;;;;;4998459;28;20379;-70
2023/03/06 13:26:40;;;;;;;8.38;6.50;;;;;;;;;;5001922;28;20044;-68
2023/03/06 13:29:34;;;;;;;8.30;6.38;;;;;;;;;;5006673;28;20473;-71
2023/03/06 13:32:00;;;;;;;7.80;5.80;;;;;;;;;;5005483;28;20096;-69
2023/03/06 13:34:34;;;;;;;7.30;6.50;;;;;;;;;;5005764;28;20489;-69
2023/03/06 13:37:12;;;;;;;9.73;7.20;;;;;;;;;;5006564;28;20467;-66
2023/03/06 13:39:59;;;;;;;11.02;7.22;;;;;;;;;;5006240;28;20047;-71
2023/03/06 13:42:36;;;;;;;9.02;7.30;;;;;;;;;;5004225;28;20133;-68
2023/03/06 13:45:36;;;;;;;9.10;6.68;;;;;;;;;;5002493;28;20033;-69
2023/03/06 13:48:04;;;;;;;9.80;6.90;;;;;;;;;;5006060;28;20192;-70
2023/03/06 13:50:32;;;;;;;8.65;6.35;;;;;;;;;;5002599;28;20038;-65
2023/03/06 13:53:34;;;;;;;10.52;6.95;;;;;;;;;;5010268;28;20388;-69
2023/03/06 13:56:36;;;;;;;7.28;5.93;;;;;;;;;;5002453;28;20305;-68
2023/03/06 13:59:26;;;;;;;8.45;6.95;;;;;;;;;;5008706;28;20038;-66
2023/03/06 14:02:20;;;;;;;8.60;6.88;;;;;;;;;;5005539;28;20042;-71
2023/03/06 14:04:57;;;;;;;9.45;6.03;;;;;;;;;;5003621;28;20041;-67
2023/03/06 14:07:23;;;;;;;7.90;6.50;;;;;;;;;;5006053;28;20048;-70
2023/03/06 14:10:20;;;;;;;9.68;7.25;;;;;;;;;;5005637;28;20033;-67
2023/03/06 14:12:48;;;;;;;7.65;5.88;;;;;;;;;;5000271;28;20485;-67
2023/03/06 14:15:14;;;;;;;9.57;6.80;;;;;;;;;;5000716;28;20121;-68
2023/03/06 14:17:52;;;;;;;11.27;7.18;;;;;;;;;;4997615;28;20844;-69
2023/03/06 14:20:19;;;;;;;8.68;6.18;;;;;;;;;;5001546;28;20038;-67
2023/03/06 14:22:45;;;;;;;9.05;6.43;;;;;;;;;;5005326;28;20042;-68
2023/03/06 14:25:28;;;;;;;9.82;6.10;;;;;;;;;;5001890;28;20328;-67
2023/03/06 14:27:53;;;;;;;10.10;6.88;;;;;;;;;;5009128;28;20048;-69
2023/03/06 14:30:21;;;;;;;8.07;6.30;;;;;;;;;;5006794;28;20543;-70
2023/03/06 14:32:49;;;;;;;10.25;6.78;;;;;;;;;;5008837;28;20045;-67
2023/03/06 14:35:26;;;;;;;7.82;5.97;;;;;;;;;;5009461;28;20512;-67
2023/03/06 14:37:55;;;;;;;9.88;7.63;;;;;;;;;;5009708;28;20042;-69
2023/03/06 14:40:27;;;;;;;9.23;6.82;;;;;;;;;;5008246;28;20041;-67
2023/03/06 14:43:11;;;;;;;10.13;7.07;;;;;;;;;;5005334;28;20100;-68
2023/03/06 14:45:48;;;;;;;11.48;7.05;;;;;;;;;;5010868;28;20478;-67
2023/03/06 14:48:14;;;;;;;7.35;5.60;;;;;;;;;;5011018;28;20049;-67